createdAt,value
2022-12-01T00:01:31.825Z,42.07
2022-12-01T00:03:59.859Z,41.40
2022-12-01T00:06:28.188Z,44.20
2022-12-01T00:09:19.287Z,43.20
2022-12-01T00:11:50.301Z,43.37
2022-12-01T00:14:19.263Z,47.33
2022-12-01T00:16:47.665Z,46.03
2022-12-01T00:19:15.833Z,45.07
2022-12-01T00:21:44.376Z,46.23
2022-12-01T00:24:12.949Z,48.07
2022-12-01T00:26:41.393Z,48.73
2022-12-01T00:29:11.057Z,46.27
2022-12-01T00:31:39.453Z,39.30
2022-12-01T00:34:11.286Z,47.07
2022-12-01T00:36:40.361Z,41.17
2022-12-01T00:39:08.634Z,43.80
2022-12-01T00:41:37.051Z,40.97
2022-12-01T00:44:05.528Z,44.97
2022-12-01T00:46:35.463Z,44.50
2022-12-01T00:49:03.735Z,40.50
2022-12-01T00:51:32.028Z,46.00
2022-12-01T00:54:00.082Z,39.77
2022-12-01T00:56:28.375Z,47.20
2022-12-01T00:58:56.461Z,45.07
2022-12-01T01:01:24.638Z,41.50
2022-12-01T01:03:54.252Z,49.67
2022-12-01T01:06:22.275Z,52.93
2022-12-01T01:08:50.942Z,47.27
2022-12-01T01:11:19.119Z,46.70
2022-12-01T01:13:47.953Z,43.63
2022-12-01T01:16:18.499Z,42.40
2022-12-01T01:18:47.011Z,39.93
2022-12-01T01:21:18.493Z,53.80
2022-12-01T01:23:46.997Z,48.20
2022-12-01T01:26:17.339Z,42.30
2022-12-01T01:28:45.942Z,42.73
2022-12-01T01:31:16.667Z,44.60
2022-12-01T01:33:45.175Z,43.07
2022-12-01T01:36:14.116Z,39.23
2022-12-01T01:38:44.303Z,42.97
2022-12-01T01:41:13.194Z,41.80
2022-12-01T01:43:46.745Z,40.73
2022-12-01T01:46:17.485Z,42.27
2022-12-01T01:48:50.210Z,46.40
2022-12-01T01:51:21.612Z,41.63
2022-12-01T01:53:56.003Z,42.90
2022-12-01T01:56:24.379Z,39.43
2022-12-01T01:58:53.966Z,43.00
2022-12-01T02:01:22.281Z,43.90
2022-12-01T02:03:53.234Z,43.00
2022-12-01T02:06:21.820Z,39.23
2022-12-01T02:08:51.607Z,42.33
2022-12-01T02:11:53.116Z,39.53
2022-12-01T02:14:38.767Z,45.13
2022-12-01T02:17:17.961Z,42.17
2022-12-01T02:20:05.305Z,39.77
2022-12-01T02:22:54.580Z,38.07
2022-12-01T02:25:34.657Z,42.03
2022-12-01T02:28:35.772Z,42.43
2022-12-01T02:31:14.853Z,41.20
2022-12-01T02:33:51.389Z,40.43
2022-12-01T02:36:27.852Z,43.30
2022-12-01T02:39:00.557Z,46.13
2022-12-01T02:41:31.491Z,39.03
2022-12-01T02:44:08.217Z,40.57
2022-12-01T02:46:42.112Z,41.80
2022-12-01T02:49:16.876Z,37.47
2022-12-01T02:51:46.716Z,40.00
2022-12-01T02:54:16.111Z,42.93
2022-12-01T02:56:46.265Z,43.33
2022-12-01T02:59:16.038Z,42.90
2022-12-01T03:01:57.235Z,39.30
2022-12-01T03:04:43.185Z,40.80
2022-12-01T03:07:27.255Z,40.67
2022-12-01T03:10:03.957Z,39.37
2022-12-01T03:12:40.834Z,36.50
2022-12-01T03:15:13.723Z,45.77
2022-12-01T03:17:52.252Z,40.77
2022-12-01T03:20:26.060Z,42.33
2022-12-01T03:23:01.180Z,42.37
2022-12-01T03:25:31.238Z,43.73
2022-12-01T03:30:53.661Z,38.57
2022-12-01T03:33:27.897Z,46.70
2022-12-01T03:36:02.476Z,42.37
2022-12-01T03:38:32.076Z,47.60
2022-12-01T03:41:05.440Z,38.30
2022-12-01T03:43:39.562Z,41.13
2022-12-01T03:46:11.578Z,48.57
2022-12-01T03:48:41.934Z,36.90
2022-12-01T03:51:16.191Z,41.17
2022-12-01T03:53:51.844Z,42.50
2022-12-01T03:56:23.294Z,38.03
2022-12-01T03:58:55.567Z,43.80
2022-12-01T04:01:23.826Z,42.20
2022-12-01T04:03:53.502Z,42.20
2022-12-01T04:06:21.512Z,45.80
2022-12-01T04:08:49.791Z,43.37
2022-12-01T04:11:35.648Z,37.73
2022-12-01T04:14:03.927Z,40.93
2022-12-01T04:16:32.037Z,39.70
2022-12-01T04:19:01.794Z,44.60
2022-12-01T04:21:29.862Z,41.87
2022-12-01T04:24:01.213Z,39.63
2022-12-01T04:26:30.127Z,41.17
2022-12-01T04:28:58.527Z,36.93
2022-12-01T04:31:26.750Z,36.73
2022-12-01T04:33:55.856Z,39.23
2022-12-01T04:36:25.229Z,40.00
2022-12-01T04:38:53.634Z,39.07
2022-12-01T04:41:21.808Z,36.80
2022-12-01T04:43:50.335Z,39.83
2022-12-01T04:46:18.413Z,37.30
2022-12-01T04:48:46.690Z,36.03
2022-12-01T04:51:14.757Z,45.77
2022-12-01T04:53:44.407Z,39.90
2022-12-01T04:56:12.444Z,40.20
2022-12-01T04:58:40.799Z,44.83
2022-12-01T05:01:11.433Z,40.10
2022-12-01T05:03:41.040Z,36.13
2022-12-01T05:06:11.437Z,35.53
2022-12-01T05:08:39.823Z,39.73
2022-12-01T05:11:12.110Z,36.27
2022-12-01T05:13:41.767Z,45.50
2022-12-01T05:16:12.253Z,35.30
2022-12-01T05:18:41.173Z,35.63
2022-12-01T05:21:10.781Z,46.97
2022-12-01T05:23:39.671Z,35.47
2022-12-01T05:26:10.321Z,41.97
2022-12-01T05:28:40.954Z,38.60
2022-12-01T05:31:09.062Z,46.27
2022-12-01T05:33:37.463Z,36.03
2022-12-01T05:36:06.084Z,40.13
2022-12-01T05:38:34.397Z,40.00
2022-12-01T05:41:02.363Z,43.40
2022-12-01T05:43:31.989Z,39.87
2022-12-01T05:46:00.218Z,40.40
2022-12-01T05:48:28.638Z,38.53
2022-12-01T05:50:56.749Z,39.83
2022-12-01T05:53:25.259Z,41.17
2022-12-01T05:55:54.459Z,42.20
2022-12-01T05:58:23.626Z,35.23
2022-12-01T06:00:53.350Z,43.00
2022-12-01T06:03:21.651Z,39.83
2022-12-01T06:05:49.763Z,38.43
2022-12-01T06:08:18.111Z,39.90
2022-12-01T06:10:46.138Z,43.63
2022-12-01T06:13:14.598Z,40.73
2022-12-01T06:15:42.989Z,41.73
2022-12-01T06:18:12.802Z,44.80
2022-12-01T06:20:40.861Z,43.13
2022-12-01T06:23:09.547Z,46.70
2022-12-01T06:25:37.661Z,38.73
2022-12-01T06:28:05.947Z,36.30
2022-12-01T06:30:34.077Z,43.33
2022-12-01T06:33:02.579Z,39.60
2022-12-01T06:35:32.004Z,44.33
2022-12-01T06:38:00.359Z,45.07
2022-12-01T06:40:29.201Z,41.37
2022-12-01T06:43:01.512Z,37.10
2022-12-01T06:45:30.592Z,34.37
2022-12-01T06:47:59.175Z,39.60
2022-12-01T06:50:27.692Z,43.50
2022-12-01T06:52:59.256Z,42.37
2022-12-01T06:55:27.546Z,40.67
2022-12-01T06:57:56.448Z,46.37
2022-12-01T07:00:25.276Z,43.43
2022-12-01T07:02:53.622Z,36.23
2022-12-01T07:05:22.128Z,38.90
2022-12-01T07:07:53.793Z,47.83
2022-12-01T07:10:25.975Z,37.00
2022-12-01T07:12:57.102Z,36.63
2022-12-01T07:15:25.341Z,39.53
2022-12-01T07:17:53.854Z,39.53
2022-12-01T07:20:21.847Z,50.60
2022-12-01T07:22:50.147Z,38.10
2022-12-01T07:25:18.223Z,36.67
2022-12-01T07:27:47.841Z,38.27
2022-12-01T07:30:16.171Z,43.37
2022-12-01T07:32:44.432Z,38.43
2022-12-01T07:35:12.472Z,36.83
2022-12-01T07:37:40.829Z,46.77
2022-12-01T07:40:10.833Z,38.43
2022-12-01T07:42:42.165Z,35.33
2022-12-01T07:45:11.850Z,40.03
2022-12-01T07:47:40.396Z,36.93
2022-12-01T07:50:09.385Z,32.73
2022-12-01T07:52:38.000Z,40.83
2022-12-01T07:55:07.280Z,34.90
2022-12-01T07:57:35.665Z,35.07
2022-12-01T08:00:04.876Z,42.70
2022-12-01T08:02:41.631Z,38.50
2022-12-01T08:05:10.396Z,41.50
2022-12-01T08:07:38.738Z,41.90
2022-12-01T08:10:07.536Z,38.43
2022-12-01T08:12:35.872Z,37.80
2022-12-01T08:15:04.552Z,37.07
2022-12-01T08:17:33.159Z,40.00
2022-12-01T08:20:02.583Z,45.57
2022-12-01T08:22:30.964Z,48.43
2022-12-01T08:24:59.261Z,36.70
2022-12-01T08:27:27.925Z,41.47
2022-12-01T08:29:55.935Z,42.33
2022-12-01T08:32:24.382Z,40.17
2022-12-01T08:34:53.781Z,37.83
2022-12-01T08:37:23.560Z,44.40
2022-12-01T08:39:51.808Z,43.17
2022-12-01T08:42:21.113Z,45.33
2022-12-01T08:44:49.301Z,41.07
2022-12-01T08:47:19.013Z,47.87
2022-12-01T08:49:47.727Z,39.97
2022-12-01T08:52:16.447Z,48.60
2022-12-01T08:54:45.928Z,43.13
2022-12-01T08:57:14.332Z,42.87
2022-12-01T08:59:44.144Z,39.90
2022-12-01T09:02:15.771Z,49.27
2022-12-01T09:04:44.518Z,41.97
2022-12-01T09:07:15.060Z,48.47
2022-12-01T09:09:45.357Z,47.80
2022-12-01T09:12:14.739Z,41.13
2022-12-01T09:14:47.924Z,42.63
2022-12-01T09:17:17.975Z,46.57
2022-12-01T09:19:46.586Z,44.53
2022-12-01T09:22:15.496Z,52.60
2022-12-01T09:24:45.125Z,42.80
2022-12-01T09:27:13.707Z,39.63
2022-12-01T09:29:41.757Z,47.30
2022-12-01T09:32:10.108Z,43.53
2022-12-01T09:34:38.281Z,38.80
2022-12-01T09:37:06.908Z,39.23
2022-12-01T09:39:35.068Z,39.47
2022-12-01T09:42:09.544Z,39.07
2022-12-01T09:44:42.725Z,39.47
2022-12-01T09:47:19.046Z,46.97
2022-12-01T09:49:55.306Z,41.17
2022-12-01T09:52:25.392Z,43.40
2022-12-01T09:54:55.471Z,42.20
2022-12-01T09:57:31.900Z,42.53
2022-12-01T10:00:03.369Z,42.57
2022-12-01T10:02:44.065Z,40.93
2022-12-01T10:05:16.219Z,43.03
2022-12-01T10:07:49.013Z,39.77
2022-12-01T10:10:21.548Z,45.13
2022-12-01T10:12:51.382Z,40.50
2022-12-01T10:15:30.240Z,39.00
2022-12-01T10:18:11.238Z,36.53
2022-12-01T10:20:45.890Z,38.83
2022-12-01T10:23:41.979Z,38.70
2022-12-01T10:26:15.325Z,39.27
2022-12-01T10:29:08.536Z,40.10
2022-12-01T10:31:44.195Z,38.80
2022-12-01T10:34:23.303Z,41.83
2022-12-01T10:36:52.152Z,37.30
2022-12-01T10:39:30.481Z,32.37
2022-12-01T10:42:06.866Z,36.07
2022-12-01T10:44:37.199Z,38.23
2022-12-01T10:47:10.614Z,36.27
2022-12-01T10:49:40.777Z,40.60
2022-12-01T10:52:27.004Z,36.77
2022-12-01T10:54:55.290Z,40.00
2022-12-01T10:57:24.591Z,45.40
2022-12-01T10:59:57.978Z,41.90
2022-12-01T11:02:29.718Z,48.70
2022-12-01T11:05:01.059Z,38.70
2022-12-01T11:07:32.938Z,41.30
2022-12-01T11:10:14.569Z,47.57
2022-12-01T11:12:43.518Z,42.37
2022-12-01T11:15:23.654Z,40.47
2022-12-01T11:17:59.465Z,41.90
2022-12-01T11:20:31.819Z,43.47
2022-12-01T11:23:24.388Z,52.77
2022-12-01T11:26:15.841Z,40.30
2022-12-01T11:28:53.256Z,33.97
2022-12-01T11:31:26.039Z,45.63
2022-12-01T11:33:56.969Z,39.33
2022-12-01T11:36:33.923Z,36.07
2022-12-01T11:39:02.930Z,42.27
2022-12-01T11:41:36.666Z,39.23
2022-12-01T11:44:22.475Z,44.70
2022-12-01T11:47:21.461Z,39.47
2022-12-01T11:49:53.306Z,39.10
2022-12-01T11:52:28.284Z,38.60
2022-12-01T11:54:58.968Z,38.97
2022-12-01T11:57:36.137Z,37.37
2022-12-01T12:00:14.192Z,38.23
2022-12-01T12:02:57.240Z,42.43
2022-12-01T12:05:43.246Z,41.43
2022-12-01T12:08:21.766Z,43.93
2022-12-01T12:10:56.719Z,48.80
2022-12-01T12:13:52.525Z,37.50
2022-12-01T12:16:33.663Z,40.73
2022-12-01T12:19:18.477Z,45.07
2022-12-01T12:22:08.736Z,45.17
2022-12-01T12:24:47.367Z,40.07
2022-12-01T12:27:22.094Z,44.63
2022-12-01T12:30:18.987Z,35.50
2022-12-01T12:33:22.238Z,42.50
2022-12-01T12:36:03.428Z,41.80
2022-12-01T12:38:52.380Z,39.60
2022-12-01T12:41:30.567Z,43.23
2022-12-01T12:44:10.357Z,40.97
2022-12-01T12:46:49.297Z,39.93
2022-12-01T12:49:28.930Z,42.83
2022-12-01T12:52:08.696Z,42.63
2022-12-01T12:54:46.240Z,39.37
2022-12-01T12:57:26.888Z,39.40
2022-12-01T13:00:00.897Z,36.97
2022-12-01T13:02:35.693Z,39.53
2022-12-01T13:05:11.072Z,44.47
2022-12-01T13:07:46.996Z,42.97
2022-12-01T13:10:26.163Z,47.03
2022-12-01T13:13:00.370Z,52.30
2022-12-01T13:15:30.543Z,50.77
2022-12-01T13:18:04.244Z,50.53
2022-12-01T13:20:35.423Z,45.63
2022-12-01T13:23:05.562Z,40.43
2022-12-01T13:25:39.465Z,43.30
2022-12-01T13:28:17.924Z,39.93
2022-12-01T13:31:03.417Z,40.77
2022-12-01T13:33:33.119Z,49.50
2022-12-01T13:36:38.022Z,43.40
2022-12-01T13:38:59.872Z,42.17
2022-12-01T13:41:32.815Z,46.20
2022-12-01T13:44:04.653Z,42.50
2022-12-01T13:46:50.300Z,39.93
2022-12-01T13:49:42.136Z,45.20
2022-12-01T13:52:31.718Z,41.47
2022-12-01T13:55:28.991Z,41.47
2022-12-01T13:58:23.341Z,48.80
2022-12-01T14:00:52.140Z,41.47
2022-12-01T14:03:41.681Z,42.97
2022-12-01T14:06:25.838Z,47.80
2022-12-01T14:08:57.758Z,45.60
2022-12-01T14:11:29.361Z,42.97
2022-12-01T14:14:00.632Z,50.43
2022-12-01T14:16:48.190Z,44.30
2022-12-01T14:19:30.890Z,45.57
2022-12-01T14:21:59.944Z,41.47
2022-12-01T14:24:34.633Z,44.17
2022-12-01T14:27:05.781Z,42.97
2022-12-01T14:29:36.067Z,43.97
2022-12-01T14:32:25.631Z,46.57
2022-12-01T14:35:03.864Z,46.70
2022-12-01T14:37:49.769Z,44.23
2022-12-01T14:40:24.378Z,43.80
2022-12-01T14:43:15.590Z,45.70
2022-12-01T14:46:05.561Z,41.67
2022-12-01T14:48:39.334Z,36.70
2022-12-01T14:51:15.954Z,40.70
2022-12-01T14:53:47.569Z,42.83
2022-12-01T14:56:19.129Z,35.57
2022-12-01T14:58:57.444Z,32.87
2022-12-01T15:01:30.825Z,32.67
2022-12-01T15:04:01.338Z,39.03
2022-12-01T15:06:32.550Z,33.17
2022-12-01T15:12:00.711Z,26.87
2022-12-01T15:14:36.060Z,26.47
2022-12-01T15:17:05.820Z,30.20
2022-12-01T15:19:37.093Z,25.63
2022-12-01T15:22:12.767Z,30.83
2022-12-01T15:24:41.971Z,24.37
2022-12-01T15:27:26.742Z,30.27
2022-12-01T15:29:57.338Z,35.63
2022-12-01T15:32:27.105Z,25.97
2022-12-01T15:34:57.595Z,33.63
2022-12-01T15:37:28.043Z,26.57
2022-12-01T15:43:02.379Z,25.87
2022-12-01T15:45:43.692Z,25.67
2022-12-01T15:48:17.880Z,23.07
2022-12-01T15:50:50.633Z,27.97
2022-12-01T15:53:24.178Z,24.70
2022-12-01T15:55:58.790Z,25.00
2022-12-01T15:58:30.703Z,28.77
2022-12-01T16:01:03.538Z,22.93
2022-12-01T16:03:32.177Z,22.73
2022-12-01T16:06:00.717Z,20.90
2022-12-01T16:08:29.372Z,22.23
2022-12-01T16:11:12.538Z,22.67
2022-12-01T16:13:45.626Z,22.73
2022-12-01T16:16:40.827Z,25.07
2022-12-01T16:19:28.244Z,21.73
2022-12-01T16:22:04.674Z,24.13
2022-12-01T16:24:35.677Z,19.80
2022-12-01T16:27:06.595Z,21.07
2022-12-01T16:29:47.519Z,30.10
2022-12-01T16:32:22.067Z,21.57
2022-12-01T16:34:52.507Z,28.63
2022-12-01T16:37:22.452Z,20.17
2022-12-01T16:39:50.714Z,24.23
2022-12-01T16:42:21.624Z,27.60
2022-12-01T16:44:50.427Z,24.00
2022-12-01T16:47:22.102Z,24.73
2022-12-01T16:49:50.720Z,28.00
2022-12-01T16:55:23.812Z,34.20
2022-12-01T16:57:53.240Z,27.47
2022-12-01T17:00:22.049Z,30.07
2022-12-01T17:02:52.698Z,27.13
2022-12-01T17:05:21.003Z,32.73
2022-12-01T17:07:49.879Z,26.33
2022-12-01T17:10:18.598Z,32.93
2022-12-01T17:12:47.037Z,27.47
2022-12-01T17:15:16.891Z,24.87
2022-12-01T17:17:45.543Z,27.73
2022-12-01T17:20:15.248Z,24.20
2022-12-01T17:22:44.237Z,26.00
2022-12-01T17:25:12.223Z,31.93
2022-12-01T17:27:41.930Z,25.10
2022-12-01T17:30:11.643Z,24.73
2022-12-01T17:32:40.058Z,31.60
2022-12-01T17:35:09.014Z,25.10
2022-12-01T17:37:39.042Z,26.27
2022-12-01T17:40:09.619Z,32.63
2022-12-01T17:42:38.256Z,27.87
2022-12-01T17:45:07.431Z,21.10
2022-12-01T17:47:36.051Z,31.87
2022-12-01T17:50:04.852Z,20.63
2022-12-01T17:52:33.303Z,27.13
2022-12-01T17:55:02.717Z,28.33
2022-12-01T17:57:31.338Z,28.57
2022-12-01T18:00:01.425Z,26.13
2022-12-01T18:02:36.999Z,29.17
2022-12-01T18:05:06.104Z,24.30
2022-12-01T18:07:34.917Z,27.53
2022-12-01T18:10:05.351Z,26.90
2022-12-01T18:12:33.395Z,30.30
2022-12-01T18:15:02.586Z,34.87
2022-12-01T18:17:30.752Z,37.03
2022-12-01T18:19:59.171Z,29.57
2022-12-01T18:22:27.152Z,28.37
2022-12-01T18:24:56.333Z,29.63
2022-12-01T18:27:25.724Z,26.27
2022-12-01T18:29:54.126Z,25.23
2022-12-01T18:32:22.173Z,29.70
2022-12-01T18:34:50.949Z,27.60
2022-12-01T18:37:19.232Z,22.53
2022-12-01T18:39:47.989Z,26.00
2022-12-01T18:42:16.045Z,29.63
2022-12-01T18:44:45.673Z,25.33
2022-12-01T18:47:13.884Z,24.60
2022-12-01T18:49:42.195Z,21.13
2022-12-01T18:52:10.342Z,30.40
2022-12-01T18:54:38.765Z,25.30
2022-12-01T18:57:07.071Z,25.23
2022-12-01T18:59:35.694Z,31.13
2022-12-01T19:02:05.273Z,21.10
2022-12-01T19:04:33.751Z,26.67
2022-12-01T19:07:02.519Z,39.27
2022-12-01T19:09:31.188Z,23.33
2022-12-01T19:12:00.641Z,29.07
2022-12-01T19:14:29.550Z,27.63
2022-12-01T19:16:58.024Z,29.90
2022-12-01T19:19:27.762Z,27.27
2022-12-01T19:21:55.860Z,20.57
2022-12-01T19:24:24.537Z,23.93
2022-12-01T19:26:52.927Z,24.80
2022-12-01T19:29:21.275Z,36.23
2022-12-01T19:31:50.386Z,18.83
2022-12-01T19:34:18.802Z,22.33
2022-12-01T19:36:49.825Z,19.67
2022-12-01T19:39:18.285Z,25.23
2022-12-01T19:41:46.396Z,26.87
2022-12-01T19:44:14.904Z,22.10
2022-12-01T19:46:43.503Z,23.80
2022-12-01T19:49:12.304Z,30.97
2022-12-01T19:51:41.440Z,21.50
2022-12-01T19:54:14.987Z,24.20
2022-12-01T19:56:43.220Z,27.83
2022-12-01T19:59:13.475Z,23.23
2022-12-01T20:01:42.364Z,23.10
2022-12-01T20:04:10.850Z,25.20
2022-12-01T20:06:39.360Z,17.97
2022-12-01T20:09:09.461Z,18.53
2022-12-01T20:11:41.628Z,21.93
2022-12-01T20:14:11.672Z,18.33
2022-12-01T20:16:39.899Z,16.80
2022-12-01T20:19:09.133Z,23.20
2022-12-01T20:21:42.506Z,20.27
2022-12-01T20:24:16.421Z,19.53
2022-12-01T20:26:48.158Z,16.13
2022-12-01T20:29:18.990Z,22.17
2022-12-01T20:31:47.827Z,23.40
2022-12-01T20:34:18.777Z,25.33
2022-12-01T20:36:47.562Z,16.70
2022-12-01T20:39:16.657Z,20.13
2022-12-01T20:41:46.167Z,29.77
2022-12-01T20:44:15.454Z,22.70
2022-12-01T20:46:45.719Z,26.70
2022-12-01T20:49:15.479Z,28.40
2022-12-01T20:51:44.004Z,25.00
2022-12-01T20:54:30.451Z,21.97
2022-12-01T20:57:00.690Z,21.57
2022-12-01T20:59:29.675Z,21.87
2022-12-01T21:01:59.578Z,27.73
2022-12-01T21:04:28.072Z,20.90
2022-12-01T21:06:57.213Z,24.67
2022-12-01T21:09:28.868Z,42.83
2022-12-01T21:12:20.656Z,24.43
2022-12-01T21:14:57.288Z,22.37
2022-12-01T21:17:32.930Z,20.40
2022-12-01T21:20:07.084Z,24.73
2022-12-01T21:22:37.573Z,17.27
2022-12-01T21:25:12.240Z,20.10
2022-12-01T21:27:44.173Z,21.33
2022-12-01T21:30:24.884Z,18.03
2022-12-01T21:32:54.786Z,22.93
2022-12-01T21:35:25.925Z,18.73
2022-12-01T21:37:59.658Z,19.10
2022-12-01T21:40:28.769Z,26.87
2022-12-01T21:43:03.350Z,22.27
2022-12-01T21:45:32.844Z,19.57
2022-12-01T21:48:07.571Z,21.80
2022-12-01T21:50:36.064Z,19.93
2022-12-01T21:53:14.068Z,22.03
2022-12-01T21:55:44.489Z,16.67
2022-12-01T21:58:34.409Z,17.17
2022-12-01T22:01:03.804Z,21.90
2022-12-01T22:03:34.084Z,22.93
2022-12-01T22:06:29.311Z,24.73
2022-12-01T22:09:01.343Z,20.70
2022-12-01T22:11:37.165Z,21.97
2022-12-01T22:14:20.917Z,20.37
2022-12-01T22:17:20.210Z,20.93
2022-12-01T22:19:57.137Z,18.40
2022-12-01T22:22:27.288Z,19.57
2022-12-01T22:24:59.415Z,18.60
2022-12-01T22:27:30.603Z,23.63
2022-12-01T22:30:02.777Z,18.47
2022-12-01T22:32:38.739Z,21.60
2022-12-01T22:35:22.940Z,24.10
2022-12-01T22:37:53.309Z,22.33
2022-12-01T22:40:48.881Z,25.13
2022-12-01T22:43:24.698Z,32.30
2022-12-01T22:46:27.357Z,26.27
2022-12-01T22:48:57.557Z,32.17
2022-12-01T22:51:31.604Z,26.17
2022-12-01T22:54:07.118Z,31.20
2022-12-01T22:56:38.853Z,30.63
2022-12-01T22:59:15.612Z,32.80
2022-12-01T23:01:50.328Z,30.10
2022-12-01T23:04:27.430Z,34.97
2022-12-01T23:07:13.428Z,30.87
2022-12-01T23:09:43.977Z,30.03
2022-12-01T23:12:28.738Z,32.37
2022-12-01T23:14:59.475Z,27.77
2022-12-01T23:17:31.187Z,29.77
2022-12-01T23:20:12.847Z,24.40
2022-12-01T23:22:41.283Z,26.07
2022-12-01T23:25:15.334Z,31.53
2022-12-01T23:27:44.126Z,24.57
2022-12-01T23:30:14.392Z,26.00
2022-12-01T23:32:44.002Z,29.83
2022-12-01T23:35:16.642Z,34.73
2022-12-01T23:37:47.399Z,31.33
2022-12-01T23:40:20.304Z,27.43
2022-12-01T23:42:48.694Z,30.77
2022-12-01T23:45:20.422Z,32.97
2022-12-01T23:47:50.753Z,25.23
2022-12-01T23:50:22.439Z,27.10
2022-12-01T23:52:50.479Z,32.27
2022-12-01T23:55:22.803Z,25.93
2022-12-01T23:57:52.320Z,30.57
